Terminal Aerodrome Forecast
Issued by NWS

Home | Current Version | Previous Version | Text Only | Print | Product List | Glossary On
Versions: 1 2 3 4 5 6 7 8 9 10 11 12 13 14 15 16 17 18 19 20
000
FTUS41 KBTV 210535
TAFMPV
TAF
KMPV 210535Z 2106/2206 19006KT P6SM OVC015
     FM210800 16007KT 3SM -SHRA OVC012
      TEMPO 2108/2112 2SM SHRA BR OVC008
     FM211600 24006KT 3SM -SHRA BR OVC010
     FM212000 26010G17KT P6SM BKN040
     FM212300 25007KT P6SM FEW200=

USA.gov is the U.S. government's official web portal to all federal, state and local government web resources and services.